sensor_id;sensor_type;location;lat;lon;timestamp;P1;durP1;ratioP1;P2;durP2;ratioP2
1887;SDS011;944;51.574;6.980;2023-05-07T00:01:47;16.63;;;14.70;;
1887;SDS011;944;51.574;6.980;2023-05-07T00:04:14;17.83;;;14.87;;
1887;SDS011;944;51.574;6.980;2023-05-07T00:06:42;43.07;;;16.13;;
1887;SDS011;944;51.574;6.980;2023-05-07T00:09:14;18.97;;;14.73;;
1887;SDS011;944;51.574;6.980;2023-05-07T00:11:41;20.60;;;14.60;;
1887;SDS011;944;51.574;6.980;2023-05-07T00:14:09;16.20;;;13.37;;
1887;SDS011;944;51.574;6.980;2023-05-07T00:16:43;22.80;;;15.67;;
1887;SDS011;944;51.574;6.980;2023-05-07T01:06:17;26.30;;;18.60;;
1887;SDS011;944;51.574;6.980;2023-05-07T01:08:46;25.63;;;19.53;;
1887;SDS011;944;51.574;6.980;2023-05-07T01:11:27;21.90;;;18.80;;
1887;SDS011;944;51.574;6.980;2023-05-07T01:14:17;29.13;;;21.40;;
1887;SDS011;944;51.574;6.980;2023-05-07T01:16:53;26.10;;;21.27;;
1887;SDS011;944;51.574;6.980;2023-05-07T01:19:28;28.03;;;21.37;;
1887;SDS011;944;51.574;6.980;2023-05-07T01:22:01;31.47;;;22.57;;
1887;SDS011;944;51.574;6.980;2023-05-07T01:24:41;30.13;;;22.23;;
1887;SDS011;944;51.574;6.980;2023-05-07T01:27:25;35.47;;;22.87;;
1887;SDS011;944;51.574;6.980;2023-05-07T01:30:02;31.00;;;22.10;;
1887;SDS011;944;51.574;6.980;2023-05-07T01:32:38;26.90;;;22.43;;
1887;SDS011;944;51.574;6.980;2023-05-07T01:35:15;29.37;;;22.73;;
1887;SDS011;944;51.574;6.980;2023-05-07T01:38:21;32.03;;;23.13;;
1887;SDS011;944;51.574;6.980;2023-05-07T01:44:02;29.80;;;22.47;;
1887;SDS011;944;51.574;6.980;2023-05-07T01:47:36;28.20;;;22.10;;
1887;SDS011;944;51.574;6.980;2023-05-07T01:50:30;29.33;;;23.10;;
1887;SDS011;944;51.574;6.980;2023-05-07T02:03:39;29.17;;;23.00;;
1887;SDS011;944;51.574;6.980;2023-05-07T02:06:16;30.53;;;23.93;;
1887;SDS011;944;51.574;6.980;2023-05-07T02:08:47;28.30;;;22.63;;
1887;SDS011;944;51.574;6.980;2023-05-07T02:12:06;29.43;;;22.87;;
1887;SDS011;944;51.574;6.980;2023-05-07T02:15:19;34.67;;;23.03;;
1887;SDS011;944;51.574;6.980;2023-05-07T02:18:30;30.17;;;23.03;;
1887;SDS011;944;51.574;6.980;2023-05-07T02:21:43;29.83;;;23.57;;
1887;SDS011;944;51.574;6.980;2023-05-07T02:24:26;32.07;;;24.00;;
1887;SDS011;944;51.574;6.980;2023-05-07T02:27:13;30.50;;;23.00;;
1887;SDS011;944;51.574;6.980;2023-05-07T02:30:42;29.10;;;23.00;;
1887;SDS011;944;51.574;6.980;2023-05-07T02:33:37;32.90;;;23.73;;
1887;SDS011;944;51.574;6.980;2023-05-07T02:47:24;44.70;;;25.50;;
1887;SDS011;944;51.574;6.980;2023-05-07T11:21:37;4.80;;;3.03;;
1887;SDS011;944;51.574;6.980;2023-05-07T11:24:07;3.13;;;2.83;;
1887;SDS011;944;51.574;6.980;2023-05-07T11:26:49;5.63;;;4.20;;
1887;SDS011;944;51.574;6.980;2023-05-07T11:29:20;4.90;;;3.80;;
1887;SDS011;944;51.574;6.980;2023-05-07T11:31:53;4.40;;;3.47;;
1887;SDS011;944;51.574;6.980;2023-05-07T11:37:26;9.63;;;3.10;;
1887;SDS011;944;51.574;6.980;2023-05-07T11:40:08;2.90;;;2.60;;
1887;SDS011;944;51.574;6.980;2023-05-07T14:20:34;14.80;;;11.10;;
1887;SDS011;944;51.574;6.980;2023-05-07T14:23:05;18.80;;;13.20;;
1887;SDS011;944;51.574;6.980;2023-05-07T14:25:33;16.37;;;11.87;;
1887;SDS011;944;51.574;6.980;2023-05-07T14:28:03;20.60;;;11.47;;
1887;SDS011;944;51.574;6.980;2023-05-07T14:30:54;18.60;;;9.87;;
1887;SDS011;944;51.574;6.980;2023-05-07T14:33:32;13.97;;;10.20;;
1887;SDS011;944;51.574;6.980;2023-05-07T14:57:08;12.53;;;10.77;;
1887;SDS011;944;51.574;6.980;2023-05-07T15:03:01;14.63;;;10.20;;
1887;SDS011;944;51.574;6.980;2023-05-07T15:05:39;12.30;;;10.47;;
1887;SDS011;944;51.574;6.980;2023-05-07T15:11:52;12.27;;;10.63;;
1887;SDS011;944;51.574;6.980;2023-05-07T15:17:56;20.33;;;12.43;;
1887;SDS011;944;51.574;6.980;2023-05-07T15:20:31;19.27;;;11.80;;
1887;SDS011;944;51.574;6.980;2023-05-07T15:22:58;13.07;;;10.33;;
1887;SDS011;944;51.574;6.980;2023-05-07T15:25:25;17.93;;;12.07;;
1887;SDS011;944;51.574;6.980;2023-05-07T15:27:52;12.43;;;10.23;;
1887;SDS011;944;51.574;6.980;2023-05-07T15:30:21;12.07;;;9.50;;
1887;SDS011;944;51.574;6.980;2023-05-07T15:32:51;18.10;;;11.30;;
1887;SDS011;944;51.574;6.980;2023-05-07T15:38:30;12.97;;;9.70;;
1887;SDS011;944;51.574;6.980;2023-05-07T15:41:06;11.27;;;8.90;;
1887;SDS011;944;51.574;6.980;2023-05-07T15:46:45;11.97;;;9.20;;
1887;SDS011;944;51.574;6.980;2023-05-07T15:49:18;12.63;;;9.00;;
1887;SDS011;944;51.574;6.980;2023-05-07T15:51:59;12.73;;;9.07;;
1887;SDS011;944;51.574;6.980;2023-05-07T15:54:28;11.90;;;8.53;;
1887;SDS011;944;51.574;6.980;2023-05-07T15:57:02;11.43;;;8.33;;
1887;SDS011;944;51.574;6.980;2023-05-07T15:59:45;11.63;;;6.83;;
1887;SDS011;944;51.574;6.980;2023-05-07T16:02:28;11.47;;;8.10;;
1887;SDS011;944;51.574;6.980;2023-05-07T16:05:01;10.80;;;8.70;;
1887;SDS011;944;51.574;6.980;2023-05-07T16:07:35;9.77;;;7.90;;
1887;SDS011;944;51.574;6.980;2023-05-07T16:10:02;13.70;;;8.77;;
1887;SDS011;944;51.574;6.980;2023-05-07T16:23:04;11.53;;;9.03;;
1887;SDS011;944;51.574;6.980;2023-05-07T16:25:31;13.17;;;9.37;;
1887;SDS011;944;51.574;6.980;2023-05-07T16:28:04;11.77;;;9.37;;
1887;SDS011;944;51.574;6.980;2023-05-07T16:30:43;13.10;;;9.73;;
1887;SDS011;944;51.574;6.980;2023-05-07T17:03:07;13.10;;;10.37;;
1887;SDS011;944;51.574;6.980;2023-05-07T17:05:34;10.23;;;8.73;;
1887;SDS011;944;51.574;6.980;2023-05-07T17:08:06;10.97;;;8.30;;
1887;SDS011;944;51.574;6.980;2023-05-07T17:10:37;10.90;;;9.00;;
1887;SDS011;944;51.574;6.980;2023-05-07T17:13:13;11.73;;;8.17;;
1887;SDS011;944;51.574;6.980;2023-05-07T17:15:41;12.10;;;8.37;;
1887;SDS011;944;51.574;6.980;2023-05-07T17:18:29;22.30;;;16.00;;
1887;SDS011;944;51.574;6.980;2023-05-07T17:20:59;17.40;;;12.00;;
1887;SDS011;944;51.574;6.980;2023-05-07T17:23:36;14.90;;;9.13;;
1887;SDS011;944;51.574;6.980;2023-05-07T17:26:11;14.07;;;9.10;;
1887;SDS011;944;51.574;6.980;2023-05-07T17:28:40;8.83;;;7.90;;
1887;SDS011;944;51.574;6.980;2023-05-07T17:31:08;9.40;;;8.10;;
1887;SDS011;944;51.574;6.980;2023-05-07T17:33:36;11.87;;;8.30;;
1887;SDS011;944;51.574;6.980;2023-05-07T17:36:07;11.93;;;8.37;;
1887;SDS011;944;51.574;6.980;2023-05-07T17:38:37;10.17;;;8.60;;
1887;SDS011;944;51.574;6.980;2023-05-07T17:41:12;10.90;;;8.40;;
1887;SDS011;944;51.574;6.980;2023-05-07T17:43:48;11.20;;;9.40;;
1887;SDS011;944;51.574;6.980;2023-05-07T17:46:15;12.93;;;9.20;;
1887;SDS011;944;51.574;6.980;2023-05-07T17:48:53;14.93;;;9.60;;
1887;SDS011;944;51.574;6.980;2023-05-07T17:51:22;14.97;;;9.60;;
1887;SDS011;944;51.574;6.980;2023-05-07T17:53:53;12.67;;;9.30;;
1887;SDS011;944;51.574;6.980;2023-05-07T17:56:21;11.37;;;9.63;;
1887;SDS011;944;51.574;6.980;2023-05-07T17:58:48;13.83;;;10.20;;
1887;SDS011;944;51.574;6.980;2023-05-07T18:01:27;16.43;;;10.60;;
1887;SDS011;944;51.574;6.980;2023-05-07T18:04:36;16.57;;;10.77;;
1887;SDS011;944;51.574;6.980;2023-05-07T18:07:16;11.63;;;10.23;;
1887;SDS011;944;51.574;6.980;2023-05-07T18:16:17;14.07;;;10.50;;
1887;SDS011;944;51.574;6.980;2023-05-07T18:18:57;15.30;;;11.37;;
1887;SDS011;944;51.574;6.980;2023-05-07T18:21:35;12.13;;;10.47;;
1887;SDS011;944;51.574;6.980;2023-05-07T18:24:13;14.93;;;11.77;;
1887;SDS011;944;51.574;6.980;2023-05-07T18:27:03;14.00;;;9.97;;
1887;SDS011;944;51.574;6.980;2023-05-07T18:29:33;13.70;;;11.40;;
1887;SDS011;944;51.574;6.980;2023-05-07T18:32:16;16.90;;;12.60;;
1887;SDS011;944;51.574;6.980;2023-05-07T18:34:45;18.17;;;13.63;;
1887;SDS011;944;51.574;6.980;2023-05-07T18:37:25;16.50;;;13.57;;
1887;SDS011;944;51.574;6.980;2023-05-07T18:40:39;20.13;;;13.50;;
1887;SDS011;944;51.574;6.980;2023-05-07T18:43:14;17.00;;;12.60;;
1887;SDS011;944;51.574;6.980;2023-05-07T18:45:54;13.80;;;11.77;;
1887;SDS011;944;51.574;6.980;2023-05-07T18:49:24;14.37;;;11.33;;
1887;SDS011;944;51.574;6.980;2023-05-07T18:58:33;13.40;;;10.67;;
1887;SDS011;944;51.574;6.980;2023-05-07T19:01:00;11.63;;;10.03;;
1887;SDS011;944;51.574;6.980;2023-05-07T19:03:31;16.97;;;11.63;;
1887;SDS011;944;51.574;6.980;2023-05-07T19:05:59;11.93;;;10.23;;
1887;SDS011;944;51.574;6.980;2023-05-07T19:12:48;12.30;;;11.00;;
1887;SDS011;944;51.574;6.980;2023-05-07T19:26:54;17.30;;;12.33;;
1887;SDS011;944;51.574;6.980;2023-05-07T19:29:42;17.47;;;13.47;;
1887;SDS011;944;51.574;6.980;2023-05-07T19:32:31;22.00;;;15.10;;
1887;SDS011;944;51.574;6.980;2023-05-07T19:35:02;24.23;;;15.20;;
1887;SDS011;944;51.574;6.980;2023-05-07T19:37:30;23.20;;;14.93;;
1887;SDS011;944;51.574;6.980;2023-05-07T19:40:14;23.40;;;14.13;;
1887;SDS011;944;51.574;6.980;2023-05-07T19:43:01;29.53;;;16.73;;
1887;SDS011;944;51.574;6.980;2023-05-07T19:45:42;20.03;;;14.40;;
1887;SDS011;944;51.574;6.980;2023-05-07T19:48:15;16.53;;;12.90;;
1887;SDS011;944;51.574;6.980;2023-05-07T19:51:01;19.63;;;10.90;;
1887;SDS011;944;51.574;6.980;2023-05-07T19:53:33;12.80;;;11.00;;
1887;SDS011;944;51.574;6.980;2023-05-07T19:56:01;17.30;;;11.70;;
1887;SDS011;944;51.574;6.980;2023-05-07T19:59:40;14.17;;;10.83;;
1887;SDS011;944;51.574;6.980;2023-05-07T20:02:30;19.20;;;11.07;;
1887;SDS011;944;51.574;6.980;2023-05-07T20:05:14;14.37;;;10.47;;
1887;SDS011;944;51.574;6.980;2023-05-07T20:08:09;17.93;;;10.70;;
1887;SDS011;944;51.574;6.980;2023-05-07T20:11:11;11.60;;;9.53;;
1887;SDS011;944;51.574;6.980;2023-05-07T20:13:52;14.13;;;10.63;;
1887;SDS011;944;51.574;6.980;2023-05-07T20:16:25;13.93;;;11.33;;
1887;SDS011;944;51.574;6.980;2023-05-07T20:25:36;16.17;;;11.17;;
1887;SDS011;944;51.574;6.980;2023-05-07T20:31:15;15.33;;;11.97;;
1887;SDS011;944;51.574;6.980;2023-05-07T20:33:50;15.10;;;11.70;;
1887;SDS011;944;51.574;6.980;2023-05-07T20:40:20;18.13;;;10.80;;
1887;SDS011;944;51.574;6.980;2023-05-07T20:45:43;15.80;;;12.10;;
1887;SDS011;944;51.574;6.980;2023-05-07T20:48:11;16.00;;;12.87;;
1887;SDS011;944;51.574;6.980;2023-05-07T20:50:43;17.13;;;13.07;;
1887;SDS011;944;51.574;6.980;2023-05-07T20:53:10;16.90;;;13.93;;
1887;SDS011;944;51.574;6.980;2023-05-07T20:55:38;15.73;;;12.40;;
1887;SDS011;944;51.574;6.980;2023-05-07T20:58:05;18.83;;;12.57;;
1887;SDS011;944;51.574;6.980;2023-05-07T21:00:32;16.47;;;12.70;;
1887;SDS011;944;51.574;6.980;2023-05-07T21:02:59;15.50;;;12.90;;
1887;SDS011;944;51.574;6.980;2023-05-07T21:05:30;21.47;;;13.20;;
1887;SDS011;944;51.574;6.980;2023-05-07T21:23:11;19.80;;;14.13;;
1887;SDS011;944;51.574;6.980;2023-05-07T21:26:34;15.90;;;14.20;;
1887;SDS011;944;51.574;6.980;2023-05-07T21:34:45;17.10;;;14.50;;
